GER4469 EDDF-LFPG
Flight info
| Callsign | GER4469 |
|---|---|
| Flight time | N/A |
| Altitude | 24000 |
| Route | SOBRA2L/18 SOBRA Y180 DIK UN857 TOLVU/N0376F230 DCT RAPOR DCT VEDUS |
| Aircraft | E190/M-SDE3GILORVW/S |
Departure
| Time | N/A |
|---|---|
| Airport | Frankfurt Main Airport (EDDF) |
Arrival
| Time | 2026-05-08 20:49 |
|---|---|
| Airport | Charles de Gaulle International Airport (LFPG) |
| Time | Latitude | Longitude | Altitude | Speed | Heading |
|---|---|---|---|---|---|
| 2026-05-08 20:13 | 49.59286 | 5.03425 | 24094 ft | 381 kts | 272° |
| 2026-05-08 20:13 | 49.59324 | 4.99337 | 24090 ft | 381 kts | 272° |
| 2026-05-08 20:14 | 49.59357 | 4.95250 | 24089 ft | 381 kts | 271° |
| 2026-05-08 20:14 | 49.59385 | 4.91156 | 24079 ft | 383 kts | 272° |
| 2026-05-08 20:14 | 49.59416 | 4.87056 | 24085 ft | 383 kts | 272° |
| 2026-05-08 20:14 | 49.59445 | 4.83008 | 24086 ft | 383 kts | 272° |
| 2026-05-08 20:15 | 49.59471 | 4.78908 | 24089 ft | 383 kts | 272° |
| 2026-05-08 20:15 | 49.59495 | 4.74808 | 24092 ft | 383 kts | 272° |
| 2026-05-08 20:15 | 49.59514 | 4.70709 | 24090 ft | 383 kts | 272° |
| 2026-05-08 20:15 | 49.59534 | 4.66602 | 24088 ft | 383 kts | 272° |
| 2026-05-08 20:16 | 49.59550 | 4.62501 | 24090 ft | 383 kts | 272° |
| 2026-05-08 20:16 | 49.59567 | 4.58400 | 24089 ft | 383 kts | 272° |
| 2026-05-08 20:16 | 49.59581 | 4.54296 | 24089 ft | 383 kts | 272° |
| 2026-05-08 20:16 | 49.59594 | 4.50195 | 24090 ft | 383 kts | 272° |
| 2026-05-08 20:17 | 49.59605 | 4.46092 | 24088 ft | 382 kts | 273° |
| 2026-05-08 20:17 | 49.59615 | 4.42000 | 24087 ft | 382 kts | 273° |
| 2026-05-08 20:17 | 49.59624 | 4.37963 | 24087 ft | 382 kts | 273° |
| 2026-05-08 20:17 | 49.59632 | 4.33875 | 24090 ft | 382 kts | 273° |
| 2026-05-08 20:18 | 49.59639 | 4.29761 | 23924 ft | 384 kts | 273° |
| 2026-05-08 20:18 | 49.59642 | 4.25681 | 24019 ft | 380 kts | 272° |
| 2026-05-08 20:18 | 49.59641 | 4.21549 | 23883 ft | 393 kts | 272° |
| 2026-05-08 20:18 | 49.59637 | 4.17348 | 23769 ft | 388 kts | 271° |
| 2026-05-08 20:19 | 49.59225 | 4.13200 | 23908 ft | 397 kts | 256° |
| 2026-05-08 20:19 | 49.58316 | 4.09134 | 23581 ft | 403 kts | 251° |
| 2026-05-08 20:19 | 49.57262 | 4.05147 | 23028 ft | 401 kts | 250° |
| 2026-05-08 20:19 | 49.56209 | 4.01213 | 22471 ft | 394 kts | 250° |
| 2026-05-08 20:20 | 49.55199 | 3.97377 | 21924 ft | 389 kts | 250° |
| 2026-05-08 20:20 | 49.54201 | 3.93544 | 21400 ft | 383 kts | 250° |
| 2026-05-08 20:20 | 49.53220 | 3.89753 | 20910 ft | 380 kts | 249° |
| 2026-05-08 20:20 | 49.52250 | 3.85991 | 20408 ft | 377 kts | 249° |
| 2026-05-08 20:21 | 49.51289 | 3.82259 | 19909 ft | 373 kts | 249° |
| 2026-05-08 20:21 | 49.50337 | 3.78563 | 19418 ft | 370 kts | 249° |
| 2026-05-08 20:21 | 49.49397 | 3.74903 | 18923 ft | 366 kts | 249° |
| 2026-05-08 20:21 | 49.48467 | 3.71276 | 18441 ft | 363 kts | 248° |
| 2026-05-08 20:22 | 49.47546 | 3.67688 | 17942 ft | 358 kts | 248° |
| 2026-05-08 20:22 | 49.46503 | 3.64178 | 16835 ft | 364 kts | 245° |
| 2026-05-08 20:22 | 49.45466 | 3.60697 | 16439 ft | 350 kts | 246° |
| 2026-05-08 20:22 | 49.44632 | 3.57259 | 16190 ft | 339 kts | 251° |
| 2026-05-08 20:23 | 49.43890 | 3.53856 | 15983 ft | 342 kts | 251° |
| 2026-05-08 20:23 | 49.43111 | 3.50388 | 15858 ft | 342 kts | 250° |
| 2026-05-08 20:23 | 49.42315 | 3.46926 | 15821 ft | 348 kts | 250° |
| 2026-05-08 20:23 | 49.41519 | 3.43421 | 15521 ft | 347 kts | 251° |
| 2026-05-08 20:24 | 49.40667 | 3.39970 | 15242 ft | 344 kts | 247° |
| 2026-05-08 20:24 | 49.39739 | 3.36604 | 15038 ft | 340 kts | 246° |
| 2026-05-08 20:24 | 49.38822 | 3.33276 | 15065 ft | 340 kts | 247° |
| 2026-05-08 20:24 | 49.37907 | 3.29915 | 15070 ft | 341 kts | 247° |
| 2026-05-08 20:25 | 49.36997 | 3.26551 | 15074 ft | 342 kts | 247° |
| 2026-05-08 20:25 | 49.36088 | 3.23182 | 15075 ft | 342 kts | 247° |
| 2026-05-08 20:25 | 49.35178 | 3.19812 | 15076 ft | 342 kts | 247° |
| 2026-05-08 20:25 | 49.34279 | 3.16484 | 15078 ft | 341 kts | 247° |
| 2026-05-08 20:26 | 49.33397 | 3.13219 | 14944 ft | 323 kts | 247° |
| 2026-05-08 20:26 | 49.32553 | 3.10099 | 14668 ft | 311 kts | 247° |
| 2026-05-08 20:26 | 49.31725 | 3.07049 | 14342 ft | 313 kts | 247° |
| 2026-05-08 20:26 | 49.30871 | 3.03906 | 14080 ft | 324 kts | 247° |
| 2026-05-08 20:27 | 49.29995 | 3.00684 | 13857 ft | 330 kts | 247° |
| 2026-05-08 20:27 | 49.29109 | 2.97428 | 13558 ft | 331 kts | 247° |
| 2026-05-08 20:27 | 49.28221 | 2.94171 | 13281 ft | 330 kts | 247° |
| 2026-05-08 20:27 | 49.27338 | 2.90935 | 13020 ft | 329 kts | 247° |
| 2026-05-08 20:28 | 49.26455 | 2.87709 | 12754 ft | 327 kts | 247° |
| 2026-05-08 20:28 | 49.25581 | 2.84516 | 12495 ft | 324 kts | 247° |
| 2026-05-08 20:28 | 49.24711 | 2.81341 | 12236 ft | 323 kts | 247° |
| 2026-05-08 20:28 | 49.23843 | 2.78178 | 11985 ft | 322 kts | 247° |
| 2026-05-08 20:29 | 49.22977 | 2.75027 | 11727 ft | 320 kts | 247° |
| 2026-05-08 20:29 | 49.22126 | 2.71937 | 11468 ft | 319 kts | 247° |
| 2026-05-08 20:29 | 49.21268 | 2.68822 | 11227 ft | 317 kts | 247° |
| 2026-05-08 20:29 | 49.20412 | 2.65716 | 11043 ft | 314 kts | 247° |
| 2026-05-08 20:30 | 49.19554 | 2.62616 | 11053 ft | 319 kts | 247° |
| 2026-05-08 20:30 | 49.18690 | 2.59493 | 11060 ft | 320 kts | 247° |
| 2026-05-08 20:30 | 49.18054 | 2.56255 | 11101 ft | 320 kts | 261° |
| 2026-05-08 20:30 | 49.17893 | 2.52858 | 11100 ft | 321 kts | 269° |
| 2026-05-08 20:31 | 49.17880 | 2.49449 | 11068 ft | 321 kts | 269° |
| 2026-05-08 20:31 | 49.17844 | 2.46077 | 11059 ft | 310 kts | 268° |
| 2026-05-08 20:31 | 49.17789 | 2.42826 | 10471 ft | 308 kts | 268° |
| 2026-05-08 20:31 | 49.17725 | 2.39661 | 10019 ft | 292 kts | 268° |
| 2026-05-08 20:32 | 49.17656 | 2.36662 | 9621 ft | 276 kts | 267° |
| 2026-05-08 20:32 | 49.17606 | 2.33771 | 9289 ft | 269 kts | 268° |
| 2026-05-08 20:32 | 49.17580 | 2.30935 | 8923 ft | 265 kts | 269° |
| 2026-05-08 20:32 | 49.17546 | 2.28165 | 8556 ft | 253 kts | 265° |
| 2026-05-08 20:33 | 49.17069 | 2.25708 | 8349 ft | 238 kts | 240° |
| 2026-05-08 20:33 | 49.16037 | 2.23709 | 8077 ft | 242 kts | 232° |
| 2026-05-08 20:33 | 49.15370 | 2.21375 | 7702 ft | 242 kts | 262° |
| 2026-05-08 20:33 | 49.15400 | 2.18819 | 7501 ft | 240 kts | 272° |
| 2026-05-08 20:34 | 49.15479 | 2.16273 | 7293 ft | 241 kts | 271° |
| 2026-05-08 20:34 | 49.15554 | 2.13756 | 7092 ft | 240 kts | 272° |
| 2026-05-08 20:34 | 49.15717 | 2.08669 | 6676 ft | 240 kts | 271° |
| 2026-05-08 20:35 | 49.15792 | 2.06122 | 6479 ft | 239 kts | 271° |
| 2026-05-08 20:35 | 49.15872 | 2.03589 | 6296 ft | 238 kts | 272° |
| 2026-05-08 20:35 | 49.15954 | 2.01076 | 6276 ft | 237 kts | 272° |
| 2026-05-08 20:35 | 49.16029 | 1.98548 | 6232 ft | 241 kts | 271° |
| 2026-05-08 20:36 | 49.16100 | 1.95981 | 6019 ft | 242 kts | 271° |
| 2026-05-08 20:36 | 49.16175 | 1.93474 | 6051 ft | 238 kts | 272° |
| 2026-05-08 20:36 | 49.16251 | 1.90978 | 6046 ft | 236 kts | 271° |
| 2026-05-08 20:36 | 49.15970 | 1.88624 | 5939 ft | 221 kts | 243° |
| 2026-05-08 20:37 | 49.14920 | 1.86950 | 5623 ft | 223 kts | 207° |
| 2026-05-08 20:37 | 49.13416 | 1.86295 | 5404 ft | 229 kts | 190° |
| 2026-05-08 20:37 | 49.11850 | 1.85776 | 5154 ft | 231 kts | 192° |
| 2026-05-08 20:37 | 49.10264 | 1.85222 | 4821 ft | 234 kts | 191° |
| 2026-05-08 20:38 | 49.08680 | 1.84662 | 4449 ft | 234 kts | 192° |
| 2026-05-08 20:38 | 49.07095 | 1.84097 | 4081 ft | 234 kts | 191° |
| 2026-05-08 20:38 | 49.05546 | 1.83538 | 3912 ft | 227 kts | 191° |
| 2026-05-08 20:38 | 49.03998 | 1.82963 | 3913 ft | 231 kts | 192° |
| 2026-05-08 20:39 | 49.02422 | 1.82818 | 4032 ft | 229 kts | 167° |
| 2026-05-08 20:39 | 49.01043 | 1.83965 | 3993 ft | 227 kts | 132° |
| 2026-05-08 20:39 | 49.00353 | 1.86078 | 4011 ft | 226 kts | 102° |
| 2026-05-08 20:39 | 49.00062 | 1.88423 | 4039 ft | 226 kts | 101° |
| 2026-05-08 20:40 | 48.99998 | 1.90805 | 4039 ft | 226 kts | 85° |
| 2026-05-08 20:40 | 49.00146 | 1.93200 | 3980 ft | 226 kts | 85° |
| 2026-05-08 20:40 | 49.00210 | 1.95579 | 3972 ft | 226 kts | 98° |
| 2026-05-08 20:40 | 48.99655 | 1.97761 | 4019 ft | 225 kts | 110° |
| 2026-05-08 20:41 | 48.99476 | 2.00121 | 4010 ft | 227 kts | 85° |
| 2026-05-08 20:41 | 48.99711 | 2.02485 | 3996 ft | 227 kts | 82° |
| 2026-05-08 20:41 | 48.99832 | 2.04873 | 3991 ft | 227 kts | 88° |
| 2026-05-08 20:41 | 48.99916 | 2.07195 | 4026 ft | 210 kts | 85° |
| 2026-05-08 20:42 | 49.00066 | 2.09384 | 3993 ft | 206 kts | 84° |
| 2026-05-08 20:42 | 49.00197 | 2.11551 | 3992 ft | 206 kts | 86° |
| 2026-05-08 20:42 | 49.00310 | 2.13718 | 3992 ft | 205 kts | 85° |
| 2026-05-08 20:42 | 49.00437 | 2.15887 | 3983 ft | 205 kts | 85° |
| 2026-05-08 20:43 | 49.00563 | 2.18048 | 3980 ft | 205 kts | 85° |
| 2026-05-08 20:43 | 49.00681 | 2.20151 | 3974 ft | 195 kts | 85° |
| 2026-05-08 20:43 | 49.00795 | 2.22165 | 3959 ft | 188 kts | 85° |
| 2026-05-08 20:43 | 49.00907 | 2.24139 | 3942 ft | 186 kts | 85° |
| 2026-05-08 20:44 | 49.01018 | 2.26111 | 3849 ft | 189 kts | 85° |
| 2026-05-08 20:44 | 49.01129 | 2.28088 | 3577 ft | 185 kts | 85° |
| 2026-05-08 20:44 | 49.01237 | 2.30022 | 3311 ft | 181 kts | 85° |
| 2026-05-08 20:44 | 49.01344 | 2.31929 | 3065 ft | 180 kts | 85° |
| 2026-05-08 20:45 | 49.01449 | 2.33814 | 2820 ft | 173 kts | 85° |
| 2026-05-08 20:45 | 49.01512 | 2.34955 | 2701 ft | 152 kts | 85° |
| 2026-05-08 20:45 | 49.01621 | 2.36921 | 2420 ft | 132 kts | 84° |
| 2026-05-08 20:45 | 49.01696 | 2.38272 | 2252 ft | 129 kts | 84° |
| 2026-05-08 20:46 | 49.01769 | 2.39617 | 2077 ft | 127 kts | 85° |
| 2026-05-08 20:46 | 49.01851 | 2.40958 | 1851 ft | 127 kts | 83° |
| 2026-05-08 20:46 | 49.01944 | 2.42284 | 1641 ft | 124 kts | 84° |
| 2026-05-08 20:46 | 49.02013 | 2.43590 | 1430 ft | 124 kts | 85° |
| 2026-05-08 20:47 | 49.02087 | 2.44897 | 1265 ft | 126 kts | 84° |
| 2026-05-08 20:47 | 49.02146 | 2.46225 | 1115 ft | 126 kts | 85° |
| 2026-05-08 20:47 | 49.02196 | 2.47568 | 948 ft | 126 kts | 84° |
| 2026-05-08 20:47 | 49.02284 | 2.48878 | 797 ft | 124 kts | 82° |
| 2026-05-08 20:48 | 49.02355 | 2.50173 | 616 ft | 121 kts | 85° |
| 2026-05-08 20:48 | 49.02418 | 2.51435 | 494 ft | 121 kts | 83° |
| 2026-05-08 20:48 | 49.02488 | 2.52701 | 400 ft | 120 kts | 83° |
| 2026-05-08 20:48 | 49.02558 | 2.53920 | 355 ft | 102 kts | 85° |
| 2026-05-08 20:49 | 49.02599 | 2.54751 | 352 ft | 59 kts | 86° |
| 2026-05-08 20:49 | 49.02579 | 2.55258 | 361 ft | 37 kts | 109° |
| 2026-05-08 20:49 | 49.02515 | 2.55481 | 358 ft | 10 kts | 114° |
| 2026-05-08 20:49 | 49.02507 | 2.55505 | 358 ft | 0 kts | 118° |
| 2026-05-08 20:50 | 49.02496 | 2.55537 | 357 ft | 8 kts | 118° |
| 2026-05-08 20:50 | 49.02473 | 2.55656 | 353 ft | 14 kts | 93° |
| 2026-05-08 20:50 | 49.02478 | 2.55812 | 356 ft | 16 kts | 86° |
| 2026-05-08 20:50 | 49.02432 | 2.55947 | 353 ft | 9 kts | 155° |
| 2026-05-08 20:51 | 49.02422 | 2.55951 | 353 ft | 0 kts | 164° |
| 2026-05-08 20:51 | 49.02411 | 2.55954 | 354 ft | 6 kts | 170° |
| 2026-05-08 20:51 | 49.02336 | 2.55967 | 355 ft | 14 kts | 175° |
| 2026-05-08 20:51 | 49.02228 | 2.55979 | 358 ft | 16 kts | 175° |
| 2026-05-08 20:52 | 49.02194 | 2.55983 | 354 ft | 0 kts | 174° |
| 2026-05-08 20:52 | 49.02186 | 2.55984 | 353 ft | 4 kts | 174° |
| 2026-05-08 20:52 | 49.02127 | 2.55976 | 356 ft | 13 kts | 199° |
| 2026-05-08 20:52 | 49.02080 | 2.55830 | 357 ft | 20 kts | 265° |
| 2026-05-08 20:53 | 49.02069 | 2.55608 | 353 ft | 22 kts | 266° |
| 2026-05-08 20:53 | 49.02055 | 2.55370 | 353 ft | 23 kts | 264° |
| 2026-05-08 20:53 | 49.02040 | 2.55115 | 356 ft | 25 kts | 265° |
| 2026-05-08 20:53 | 49.02032 | 2.54846 | 356 ft | 26 kts | 268° |
| 2026-05-08 20:54 | 49.02018 | 2.54637 | 362 ft | 18 kts | 265° |
| 2026-05-08 20:54 | 49.02008 | 2.54455 | 353 ft | 16 kts | 265° |
| 2026-05-08 20:54 | 49.01998 | 2.54291 | 357 ft | 16 kts | 262° |
| 2026-05-08 20:54 | 49.01942 | 2.54144 | 359 ft | 18 kts | 207° |
| 2026-05-08 20:55 | 49.01831 | 2.54160 | 360 ft | 17 kts | 138° |
| 2026-05-08 20:55 | 49.01803 | 2.54321 | 358 ft | 10 kts | 101° |
| 2026-05-08 20:55 | 49.01801 | 2.54334 | 359 ft | 2 kts | 101° |
| 2026-05-08 20:55 | 49.01800 | 2.54338 | 358 ft | 0 kts | 102° |
| 2026-05-08 20:56 | 49.01794 | 2.54378 | 353 ft | 9 kts | 109° |
| 2026-05-08 20:56 | 49.01783 | 2.54408 | 360 ft | 1 kts | 125° |
| 2026-05-08 20:56 | 49.01773 | 2.54433 | 358 ft | 4 kts | 121° |
| 2026-05-08 20:56 | 49.01752 | 2.54485 | 356 ft | 7 kts | 122° |
| 2026-05-08 20:57 | 49.01718 | 2.54562 | 356 ft | 10 kts | 129° |
| 2026-05-08 20:57 | 49.01657 | 2.54645 | 355 ft | 13 kts | 145° |
| 2026-05-08 20:57 | 49.01612 | 2.54664 | 353 ft | 5 kts | 208° |
| 2026-05-08 20:57 | 49.01584 | 2.54612 | 356 ft | 7 kts | 236° |
| 2026-05-08 20:58 | 49.01565 | 2.54564 | 353 ft | 0 kts | 238° |
| 2026-05-08 20:58 | 49.01564 | 2.54560 | 353 ft | 1 kts | 238° |
| 2026-05-08 20:58 | 49.01562 | 2.54556 | 353 ft | 0 kts | 238° |